sensor_id;sensor_type;location;lat;lon;timestamp;pressure;altitude;pressure_sealevel;temperature;humidity
64844;BME280;51310;52.198;5.422;2023-04-29T00:01:57;101300.53;;;8.02;100.00
64844;BME280;51310;52.198;5.422;2023-04-29T00:04:25;101297.41;;;8.05;100.00
64844;BME280;51310;52.198;5.422;2023-04-29T00:06:51;101296.25;;;8.10;100.00
64844;BME280;51310;52.198;5.422;2023-04-29T00:09:16;101304.66;;;8.16;100.00
64844;BME280;51310;52.198;5.422;2023-04-29T00:11:42;101301.50;;;8.18;100.00
64844;BME280;51310;52.198;5.422;2023-04-29T00:14:08;101304.63;;;8.23;100.00
64844;BME280;51310;52.198;5.422;2023-04-29T00:16:33;101300.59;;;8.25;100.00
64844;BME280;51310;52.198;5.422;2023-04-29T00:18:59;101295.59;;;8.27;100.00
64844;BME280;51310;52.198;5.422;2023-04-29T00:21:25;101305.72;;;8.25;100.00
64844;BME280;51310;52.198;5.422;2023-04-29T00:23:52;101304.06;;;8.26;100.00
64844;BME280;51310;52.198;5.422;2023-04-29T00:26:18;101304.25;;;8.20;100.00
64844;BME280;51310;52.198;5.422;2023-04-29T00:28:44;101309.06;;;8.10;100.00
64844;BME280;51310;52.198;5.422;2023-04-29T00:31:10;101311.69;;;8.02;100.00
64844;BME280;51310;52.198;5.422;2023-04-29T00:33:35;101325.78;;;7.99;100.00
64844;BME280;51310;52.198;5.422;2023-04-29T00:36:01;101324.16;;;7.99;100.00
64844;BME280;51310;52.198;5.422;2023-04-29T00:38:28;101328.78;;;7.95;100.00
64844;BME280;51310;52.198;5.422;2023-04-29T00:40:54;101331.53;;;7.89;100.00
64844;BME280;51310;52.198;5.422;2023-04-29T00:43:20;101337.03;;;7.85;100.00
64844;BME280;51310;52.198;5.422;2023-04-29T00:45:46;101332.81;;;7.86;100.00
64844;BME280;51310;52.198;5.422;2023-04-29T00:48:12;101335.56;;;7.87;100.00
64844;BME280;51310;52.198;5.422;2023-04-29T00:50:40;101343.06;;;7.86;100.00
64844;BME280;51310;52.198;5.422;2023-04-29T00:53:07;101344.69;;;7.92;100.00
64844;BME280;51310;52.198;5.422;2023-04-29T00:55:34;101343.41;;;7.96;100.00
64844;BME280;51310;52.198;5.422;2023-04-29T00:58:00;101351.78;;;8.02;100.00
64844;BME280;51310;52.198;5.422;2023-04-29T01:00:27;101350.69;;;8.00;100.00
64844;BME280;51310;52.198;5.422;2023-04-29T01:02:57;101346.66;;;8.02;100.00
64844;BME280;51310;52.198;5.422;2023-04-29T01:05:24;101350.69;;;8.00;100.00
64844;BME280;51310;52.198;5.422;2023-04-29T01:11:15;101362.03;;;8.02;100.00
64844;BME280;51310;52.198;5.422;2023-04-29T01:13:49;101366.81;;;7.99;100.00
64844;BME280;51310;52.198;5.422;2023-04-29T01:16:31;101364.28;;;7.92;100.00
64844;BME280;51310;52.198;5.422;2023-04-29T01:19:09;101367.75;;;7.92;100.00
64844;BME280;51310;52.198;5.422;2023-04-29T01:21:47;101373.25;;;7.88;100.00
64844;BME280;51310;52.198;5.422;2023-04-29T01:24:16;101374.91;;;7.88;100.00
64844;BME280;51310;52.198;5.422;2023-04-29T01:26:50;101375.81;;;7.88;100.00
64844;BME280;51310;52.198;5.422;2023-04-29T01:29:37;101379.50;;;7.83;100.00
64844;BME280;51310;52.198;5.422;2023-04-29T01:32:08;101386.09;;;7.81;100.00
64844;BME280;51310;52.198;5.422;2023-04-29T01:34:48;101388.31;;;7.78;100.00
64844;BME280;51310;52.198;5.422;2023-04-29T01:37:48;101382.25;;;7.85;100.00
64844;BME280;51310;52.198;5.422;2023-04-29T01:40:18;101385.91;;;7.87;100.00
64844;BME280;51310;52.198;5.422;2023-04-29T01:45:20;101378.94;;;7.93;100.00
64844;BME280;51310;52.198;5.422;2023-04-29T01:47:51;101383.47;;;8.02;100.00
64844;BME280;51310;52.198;5.422;2023-04-29T01:50:17;101381.59;;;8.09;100.00
64844;BME280;51310;52.198;5.422;2023-04-29T01:52:43;101383.78;;;8.13;100.00
64844;BME280;51310;52.198;5.422;2023-04-29T01:55:09;101379.00;;;8.16;100.00
64844;BME280;51310;52.198;5.422;2023-04-29T01:57:35;101387.81;;;8.11;100.00
64844;BME280;51310;52.198;5.422;2023-04-29T02:00:01;101389.09;;;8.14;100.00
64844;BME280;51310;52.198;5.422;2023-04-29T02:02:26;101382.50;;;8.16;100.00
64844;BME280;51310;52.198;5.422;2023-04-29T02:04:52;101384.13;;;8.16;100.00
64844;BME280;51310;52.198;5.422;2023-04-29T02:07:18;101383.78;;;8.13;100.00
64844;BME280;51310;52.198;5.422;2023-04-29T02:09:43;101381.41;;;8.14;100.00
64844;BME280;51310;52.198;5.422;2023-04-29T02:12:09;101389.25;;;8.16;100.00
64844;BME280;51310;52.198;5.422;2023-04-29T02:14:35;101392.75;;;8.16;100.00
64844;BME280;51310;52.198;5.422;2023-04-29T02:17:00;101390.34;;;8.25;100.00
64844;BME280;51310;52.198;5.422;2023-04-29T02:19:26;101393.03;;;8.27;100.00
64844;BME280;51310;52.198;5.422;2023-04-29T02:21:52;101400.75;;;8.27;100.00
64844;BME280;51310;52.198;5.422;2023-04-29T02:24:17;101394.38;;;8.23;100.00
64844;BME280;51310;52.198;5.422;2023-04-29T02:26:43;101400.75;;;8.27;100.00
64844;BME280;51310;52.198;5.422;2023-04-29T02:29:08;101402.91;;;8.31;100.00
64844;BME280;51310;52.198;5.422;2023-04-29T02:31:34;101409.53;;;8.29;100.00
64844;BME280;51310;52.198;5.422;2023-04-29T02:34:00;101413.75;;;8.28;100.00
64844;BME280;51310;52.198;5.422;2023-04-29T02:36:26;101409.91;;;8.32;100.00
64844;BME280;51310;52.198;5.422;2023-04-29T02:38:52;101418.88;;;8.28;100.00
64844;BME280;51310;52.198;5.422;2023-04-29T02:41:20;101419.78;;;8.29;100.00
64844;BME280;51310;52.198;5.422;2023-04-29T02:43:46;101420.34;;;8.26;100.00
64844;BME280;51310;52.198;5.422;2023-04-29T02:46:14;101429.50;;;8.24;100.00
64844;BME280;51310;52.198;5.422;2023-04-29T02:48:41;101436.88;;;8.21;100.00
64844;BME280;51310;52.198;5.422;2023-04-29T02:51:06;101434.84;;;8.18;100.00
64844;BME280;51310;52.198;5.422;2023-04-29T02:53:32;101442.53;;;8.18;100.00
64844;BME280;51310;52.198;5.422;2023-04-29T02:55:58;101449.16;;;8.16;100.00
64844;BME280;51310;52.198;5.422;2023-04-29T02:58:24;101436.69;;;8.19;100.00
64844;BME280;51310;52.198;5.422;2023-04-29T03:00:50;101447.66;;;8.18;100.00
64844;BME280;51310;52.198;5.422;2023-04-29T03:03:16;101452.44;;;8.15;100.00
64844;BME280;51310;52.198;5.422;2023-04-29T03:05:41;101459.75;;;8.19;100.00
64844;BME280;51310;52.198;5.422;2023-04-29T03:08:07;101448.75;;;8.20;100.00
64844;BME280;51310;52.198;5.422;2023-04-29T03:10:35;101448.75;;;8.20;100.00
64844;BME280;51310;52.198;5.422;2023-04-29T03:13:01;101457.38;;;8.14;100.00
64844;BME280;51310;52.198;5.422;2023-04-29T03:15:26;101453.56;;;8.10;100.00
64844;BME280;51310;52.198;5.422;2023-04-29T03:17:52;101445.84;;;8.17;100.00
64844;BME280;51310;52.198;5.422;2023-04-29T03:20:18;101461.41;;;8.12;100.00
64844;BME280;51310;52.198;5.422;2023-04-29T03:22:44;101457.22;;;8.12;100.00
64844;BME280;51310;52.198;5.422;2023-04-29T03:25:09;101453.53;;;8.17;100.00
64844;BME280;51310;52.198;5.422;2023-04-29T03:27:35;101455.91;;;8.16;100.00
64844;BME280;51310;52.198;5.422;2023-04-29T03:30:01;101452.25;;;8.14;100.00
64844;BME280;51310;52.198;5.422;2023-04-29T03:32:27;101457.19;;;8.19;100.00
64844;BME280;51310;52.198;5.422;2023-04-29T03:34:52;101460.09;;;8.22;100.00
64844;BME280;51310;52.198;5.422;2023-04-29T03:37:19;101452.41;;;8.22;100.00
64844;BME280;51310;52.198;5.422;2023-04-29T03:39:45;101459.56;;;8.18;100.00
64844;BME280;51310;52.198;5.422;2023-04-29T03:42:11;101467.13;;;8.16;100.00
64844;BME280;51310;52.198;5.422;2023-04-29T03:44:36;101463.41;;;8.21;100.00
64844;BME280;51310;52.198;5.422;2023-04-29T03:47:02;101464.13;;;8.20;100.00
64844;BME280;51310;52.198;5.422;2023-04-29T03:49:28;101465.06;;;8.21;100.00
64844;BME280;51310;52.198;5.422;2023-04-29T03:51:53;101464.13;;;8.20;100.00
64844;BME280;51310;52.198;5.422;2023-04-29T03:54:19;101468.16;;;8.26;100.00
64844;BME280;51310;52.198;5.422;2023-04-29T03:56:45;101476.44;;;8.23;100.00
64844;BME280;51310;52.198;5.422;2023-04-29T03:59:11;101475.09;;;8.27;100.00
64844;BME280;51310;52.198;5.422;2023-04-29T04:01:36;101472.53;;;8.27;100.00
64844;BME280;51310;52.198;5.422;2023-04-29T04:04:02;101480.09;;;8.25;100.00
64844;BME280;51310;52.198;5.422;2023-04-29T04:06:28;101483.75;;;8.20;100.00
64844;BME280;51310;52.198;5.422;2023-04-29T04:08:53;101488.16;;;8.21;100.00
64844;BME280;51310;52.198;5.422;2023-04-29T04:11:19;101494.53;;;8.25;100.00
64844;BME280;51310;52.198;5.422;2023-04-29T04:13:44;101492.53;;;8.22;100.00
64844;BME280;51310;52.198;5.422;2023-04-29T04:16:10;101482.09;;;8.20;100.00
64844;BME280;51310;52.198;5.422;2023-04-29T04:18:37;101495.09;;;8.22;100.00
64844;BME280;51310;52.198;5.422;2023-04-29T04:21:11;101501.13;;;8.22;100.00
64844;BME280;51310;52.198;5.422;2023-04-29T04:23:37;101488.88;;;8.27;100.00
64844;BME280;51310;52.198;5.422;2023-04-29T04:26:07;101499.50;;;8.23;100.00
64844;BME280;51310;52.198;5.422;2023-04-29T04:28:33;101508.66;;;8.21;100.00
64844;BME280;51310;52.198;5.422;2023-04-29T04:30:58;101506.47;;;8.17;100.00
64844;BME280;51310;52.198;5.422;2023-04-29T04:33:25;101500.97;;;8.14;100.00
64844;BME280;51310;52.198;5.422;2023-04-29T04:35:51;101507.19;;;8.16;100.00
64844;BME280;51310;52.198;5.422;2023-04-29T04:38:17;101509.94;;;8.17;100.00
64844;BME280;51310;52.198;5.422;2023-04-29T04:40:43;101520.38;;;8.12;100.00
64844;BME280;51310;52.198;5.422;2023-04-29T04:43:09;101528.84;;;8.11;100.00
64844;BME280;51310;52.198;5.422;2023-04-29T04:45:35;101535.06;;;8.13;100.00
64844;BME280;51310;52.198;5.422;2023-04-29T04:48:02;101526.81;;;8.15;100.00
64844;BME280;51310;52.198;5.422;2023-04-29T04:50:28;101531.75;;;8.14;100.00
64844;BME280;51310;52.198;5.422;2023-04-29T04:52:55;101544.72;;;8.22;100.00
64844;BME280;51310;52.198;5.422;2023-04-29T04:55:22;101541.63;;;8.18;100.00
64844;BME280;51310;52.198;5.422;2023-04-29T04:57:48;101548.22;;;8.23;100.00
64844;BME280;51310;52.198;5.422;2023-04-29T05:00:14;101553.72;;;8.19;100.00
64844;BME280;51310;52.198;5.422;2023-04-29T05:02:39;101551.88;;;8.18;100.00
64844;BME280;51310;52.198;5.422;2023-04-29T05:05:05;101556.25;;;8.26;100.00
64844;BME280;51310;52.198;5.422;2023-04-29T05:07:32;101555.00;;;8.30;100.00
64844;BME280;51310;52.198;5.422;2023-04-29T05:10:04;101560.09;;;8.22;100.00
64844;BME280;51310;52.198;5.422;2023-04-29T05:12:31;101560.69;;;8.27;100.00
64844;BME280;51310;52.198;5.422;2023-04-29T05:14:57;101564.69;;;8.32;100.00
64844;BME280;51310;52.198;5.422;2023-04-29T05:17:23;101565.78;;;8.34;100.00
64844;BME280;51310;52.198;5.422;2023-04-29T05:19:49;101566.69;;;8.42;100.00
64844;BME280;51310;52.198;5.422;2023-04-29T05:22:15;101577.88;;;8.43;100.00
64844;BME280;51310;52.198;5.422;2023-04-29T05:24:41;101578.94;;;8.52;100.00
64844;BME280;51310;52.198;5.422;2023-04-29T05:27:06;101580.75;;;8.53;100.00
64844;BME280;51310;52.198;5.422;2023-04-29T05:29:32;101586.28;;;8.56;100.00
64844;BME280;51310;52.198;5.422;2023-04-29T05:31:58;101581.53;;;8.52;100.00
64844;BME280;51310;52.198;5.422;2023-04-29T05:34:24;101589.19;;;8.59;100.00
64844;BME280;51310;52.198;5.422;2023-04-29T05:36:50;101582.63;;;8.54;100.00
64844;BME280;51310;52.198;5.422;2023-04-29T05:39:15;101586.28;;;8.56;100.00
64844;BME280;51310;52.198;5.422;2023-04-29T05:41:42;101587.38;;;8.58;100.00
64844;BME280;51310;52.198;5.422;2023-04-29T05:44:08;101590.50;;;8.55;100.00
64844;BME280;51310;52.198;5.422;2023-04-29T05:46:34;101595.06;;;8.58;100.00
64844;BME280;51310;52.198;5.422;2023-04-29T05:49:00;101600.16;;;8.65;100.00
64844;BME280;51310;52.198;5.422;2023-04-29T05:51:25;101602.16;;;8.68;100.00
64844;BME280;51310;52.198;5.422;2023-04-29T05:53:53;101603.78;;;8.81;100.00
64844;BME280;51310;52.198;5.422;2023-04-29T05:56:19;101611.81;;;8.85;100.00
64844;BME280;51310;52.198;5.422;2023-04-29T05:58:45;101614.22;;;8.83;100.00
64844;BME280;51310;52.198;5.422;2023-04-29T06:01:10;101623.94;;;8.86;100.00
64844;BME280;51310;52.198;5.422;2023-04-29T06:03:36;101619.09;;;8.96;100.00
64844;BME280;51310;52.198;5.422;2023-04-29T06:06:02;101613.25;;;8.90;100.00
64844;BME280;51310;52.198;5.422;2023-04-29T06:08:28;101622.63;;;8.96;100.00
64844;BME280;51310;52.198;5.422;2023-04-29T06:10:54;101619.16;;;8.89;100.00
64844;BME280;51310;52.198;5.422;2023-04-29T06:13:20;101623.53;;;8.90;100.00
64844;BME280;51310;52.198;5.422;2023-04-29T06:15:46;101635.13;;;8.86;100.00
64844;BME280;51310;52.198;5.422;2023-04-29T06:18:12;101637.25;;;8.97;100.00
64844;BME280;51310;52.198;5.422;2023-04-29T06:20:37;101627.75;;;8.96;100.00
64844;BME280;51310;52.198;5.422;2023-04-29T06:23:03;101641.66;;;8.98;100.00
64844;BME280;51310;52.198;5.422;2023-04-29T06:25:29;101646.59;;;9.04;100.00
64844;BME280;51310;52.198;5.422;2023-04-29T06:27:57;101648.06;;;9.02;100.00
64844;BME280;51310;52.198;5.422;2023-04-29T06:30:22;101646.25;;;9.01;100.00
64844;BME280;51310;52.198;5.422;2023-04-29T06:32:48;101653.56;;;8.98;100.00
64844;BME280;51310;52.198;5.422;2023-04-29T06:35:14;101658.34;;;9.02;100.00
64844;BME280;51310;52.198;5.422;2023-04-29T06:37:40;101660.94;;;8.95;100.00
64844;BME280;51310;52.198;5.422;2023-04-29T06:40:06;101665.47;;;9.04;100.00
64844;BME280;51310;52.198;5.422;2023-04-29T06:42:32;101662.66;;;9.17;100.00
64844;BME280;51310;52.198;5.422;2023-04-29T06:44:58;101659.84;;;9.37;100.00
64844;BME280;51310;52.198;5.422;2023-04-29T06:47:24;101656.84;;;9.41;100.00
64844;BME280;51310;52.198;5.422;2023-04-29T06:49:49;101665.41;;;9.56;100.00
64844;BME280;51310;52.198;5.422;2023-04-29T06:52:15;101672.19;;;9.56;100.00
64844;BME280;51310;52.198;5.422;2023-04-29T06:54:41;101676.06;;;9.52;100.00
64844;BME280;51310;52.198;5.422;2023-04-29T06:57:06;101672.03;;;9.54;100.00
64844;BME280;51310;52.198;5.422;2023-04-29T06:59:32;101675.66;;;9.63;100.00
64844;BME280;51310;52.198;5.422;2023-04-29T07:01:58;101684.41;;;9.73;100.00
64844;BME280;51310;52.198;5.422;2023-04-29T07:04:23;101684.00;;;9.77;100.00
64844;BME280;51310;52.198;5.422;2023-04-29T07:06:49;101684.41;;;9.73;100.00
64844;BME280;51310;52.198;5.422;2023-04-29T07:09:15;101686.06;;;9.72;100.00
64844;BME280;51310;52.198;5.422;2023-04-29T07:11:41;101687.53;;;9.70;100.00
64844;BME280;51310;52.198;5.422;2023-04-29T07:14:07;101691.81;;;9.62;100.00
64844;BME280;51310;52.198;5.422;2023-04-29T07:16:33;101700.47;;;9.56;100.00
64844;BME280;51310;52.198;5.422;2023-04-29T07:18:59;101702.72;;;9.53;100.00
64844;BME280;51310;52.198;5.422;2023-04-29T07:21:25;101699.19;;;9.52;100.00
64844;BME280;51310;52.198;5.422;2023-04-29T07:23:51;101712.22;;;9.54;100.00
64844;BME280;51310;52.198;5.422;2023-04-29T07:26:17;101722.13;;;9.58;100.00
64844;BME280;51310;52.198;5.422;2023-04-29T07:28:44;101718.47;;;9.56;100.00
64844;BME280;51310;52.198;5.422;2023-04-29T07:31:10;101727.47;;;9.52;100.00
64844;BME280;51310;52.198;5.422;2023-04-29T07:33:37;101723.41;;;9.61;100.00
64844;BME280;51310;52.198;5.422;2023-04-29T07:36:03;101724.66;;;9.65;100.00
64844;BME280;51310;52.198;5.422;2023-04-29T07:38:29;101726.88;;;9.62;100.00
64844;BME280;51310;52.198;5.422;2023-04-29T07:40:55;101729.38;;;9.76;100.00
64844;BME280;51310;52.198;5.422;2023-04-29T07:43:21;101726.50;;;9.89;100.00
64844;BME280;51310;52.198;5.422;2023-04-29T07:45:47;101730.47;;;10.09;100.00
64844;BME280;51310;52.198;5.422;2023-04-29T07:48:13;101720.94;;;10.31;100.00
64844;BME280;51310;52.198;5.422;2023-04-29T07:50:39;101722.41;;;10.29;100.00
64844;BME280;51310;52.198;5.422;2023-04-29T07:53:05;101723.59;;;10.62;100.00
64844;BME280;51310;52.198;5.422;2023-04-29T07:55:31;101728.03;;;10.79;100.00
64844;BME280;51310;52.198;5.422;2023-04-29T07:57:57;101728.88;;;10.87;100.00
64844;BME280;51310;52.198;5.422;2023-04-29T08:00:24;101730.28;;;10.92;100.00
64844;BME280;51310;52.198;5.422;2023-04-29T08:02:51;101728.59;;;10.77;100.00
64844;BME280;51310;52.198;5.422;2023-04-29T08:05:17;101741.13;;;10.35;100.00
64844;BME280;51310;52.198;5.422;2023-04-29T08:07:43;101743.53;;;10.33;100.00
64844;BME280;51310;52.198;5.422;2023-04-29T08:10:09;101736.75;;;10.26;100.00
64844;BME280;51310;52.198;5.422;2023-04-29T08:12:35;101743.66;;;10.12;100.00
64844;BME280;51310;52.198;5.422;2023-04-29T08:15:01;101741.28;;;10.36;100.00
64844;BME280;51310;52.198;5.422;2023-04-29T08:17:26;101748.91;;;10.51;100.00
64844;BME280;51310;52.198;5.422;2023-04-29T08:19:52;101751.28;;;10.72;100.00
64844;BME280;51310;52.198;5.422;2023-04-29T08:22:18;101752.06;;;10.87;100.00
64844;BME280;51310;52.198;5.422;2023-04-29T08:24:43;101753.72;;;11.02;100.00
64844;BME280;51310;52.198;5.422;2023-04-29T08:27:09;101758.97;;;11.11;100.00
64844;BME280;51310;52.198;5.422;2023-04-29T08:29:35;101760.56;;;11.18;100.00
64844;BME280;51310;52.198;5.422;2023-04-29T08:32:02;101763.44;;;11.21;100.00
64844;BME280;51310;52.198;5.422;2023-04-29T08:34:29;101756.81;;;11.23;100.00
64844;BME280;51310;52.198;5.422;2023-04-29T08:36:56;101760.38;;;11.16;100.00
64844;BME280;51310;52.198;5.422;2023-04-29T08:39:22;101761.56;;;11.11;100.00
64844;BME280;51310;52.198;5.422;2023-04-29T08:41:47;101764.72;;;11.24;100.00
64844;BME280;51310;52.198;5.422;2023-04-29T08:44:16;101758.22;;;11.44;100.00
64844;BME280;51310;52.198;5.422;2023-04-29T08:46:46;101768.81;;;11.38;100.00
64844;BME280;51310;52.198;5.422;2023-04-29T08:49:12;101763.38;;;11.28;100.00
64844;BME280;51310;52.198;5.422;2023-04-29T08:51:38;101770.19;;;11.43;100.00
64844;BME280;51310;52.198;5.422;2023-04-29T08:54:04;101774.19;;;11.64;100.00
64844;BME280;51310;52.198;5.422;2023-04-29T08:56:32;101771.84;;;11.59;100.00
64844;BME280;51310;52.198;5.422;2023-04-29T08:59:00;101777.03;;;11.43;100.00
64844;BME280;51310;52.198;5.422;2023-04-29T09:01:28;101783.56;;;11.16;100.00
64844;BME280;51310;52.198;5.422;2023-04-29T09:04:11;101788.06;;;11.10;100.00
64844;BME280;51310;52.198;5.422;2023-04-29T09:06:39;101782.69;;;10.93;100.00
64844;BME280;51310;52.198;5.422;2023-04-29T09:09:05;101783.50;;;11.23;100.00
64844;BME280;51310;52.198;5.422;2023-04-29T09:11:33;101782.78;;;11.40;100.00
64844;BME280;51310;52.198;5.422;2023-04-29T09:14:01;101783.34;;;11.54;100.00
64844;BME280;51310;52.198;5.422;2023-04-29T09:16:27;101791.81;;;11.37;100.00
64844;BME280;51310;52.198;5.422;2023-04-29T09:18:53;101788.97;;;11.42;100.00
64844;BME280;51310;52.198;5.422;2023-04-29T09:21:24;101794.22;;;11.51;100.00
64844;BME280;51310;52.198;5.422;2023-04-29T09:23:58;101805.13;;;11.64;100.00
64844;BME280;51310;52.198;5.422;2023-04-29T09:26:26;101804.03;;;11.62;100.00
64844;BME280;51310;52.198;5.422;2023-04-29T09:29:10;101813.00;;;11.66;100.00
64844;BME280;51310;52.198;5.422;2023-04-29T09:31:38;101806.44;;;11.77;100.00
64844;BME280;51310;52.198;5.422;2023-04-29T09:34:04;101809.00;;;11.77;100.00
64844;BME280;51310;52.198;5.422;2023-04-29T09:36:44;101811.59;;;11.77;100.00
64844;BME280;51310;52.198;5.422;2023-04-29T09:39:21;101801.97;;;11.67;100.00
64844;BME280;51310;52.198;5.422;2023-04-29T09:47:01;101818.66;;;11.86;100.00
64844;BME280;51310;52.198;5.422;2023-04-29T09:52:01;101822.91;;;12.02;100.00
64844;BME280;51310;52.198;5.422;2023-04-29T09:54:31;101821.78;;;12.16;100.00
64844;BME280;51310;52.198;5.422;2023-04-29T09:56:59;101822.00;;;12.26;100.00
64844;BME280;51310;52.198;5.422;2023-04-29T09:59:27;101826.31;;;11.94;100.00
64844;BME280;51310;52.198;5.422;2023-04-29T10:01:55;101828.72;;;12.08;100.00
64844;BME280;51310;52.198;5.422;2023-04-29T10:04:26;101810.94;;;12.27;100.00
64844;BME280;51310;52.198;5.422;2023-04-29T10:06:55;101829.97;;;12.36;100.00
64844;BME280;51310;52.198;5.422;2023-04-29T10:09:22;101829.84;;;12.43;100.00
64844;BME280;51310;52.198;5.422;2023-04-29T10:11:52;101827.06;;;12.33;100.00
64844;BME280;51310;52.198;5.422;2023-04-29T10:14:20;101833.47;;;12.61;100.00
64844;BME280;51310;52.198;5.422;2023-04-29T10:17:11;101823.84;;;12.51;100.00
64844;BME280;51310;52.198;5.422;2023-04-29T10:19:58;101828.34;;;12.21;100.00
64844;BME280;51310;52.198;5.422;2023-04-29T10:22:48;101831.22;;;12.40;100.00
64844;BME280;51310;52.198;5.422;2023-04-29T10:25:18;101819.22;;;12.40;100.00
64844;BME280;51310;52.198;5.422;2023-04-29T10:27:45;101831.38;;;12.66;100.00
64844;BME280;51310;52.198;5.422;2023-04-29T10:30:13;101821.00;;;12.57;100.00
64844;BME280;51310;52.198;5.422;2023-04-29T10:32:44;101834.94;;;12.50;100.00
64844;BME280;51310;52.198;5.422;2023-04-29T10:35:13;101833.47;;;12.37;100.00
64844;BME280;51310;52.198;5.422;2023-04-29T10:37:40;101827.28;;;12.43;100.00
64844;BME280;51310;52.198;5.422;2023-04-29T10:40:46;101827.63;;;12.80;100.00
64844;BME280;51310;52.198;5.422;2023-04-29T10:43:13;101821.03;;;12.66;100.00
64844;BME280;51310;52.198;5.422;2023-04-29T10:45:39;101833.22;;;12.42;100.00
64844;BME280;51310;52.198;5.422;2023-04-29T10:59:20;101838.88;;;15.07;78.37
64844;BME280;51310;52.198;5.422;2023-04-29T11:01:51;101829.13;;;14.68;89.49
64844;BME280;51310;52.198;5.422;2023-04-29T11:04:20;101834.59;;;14.08;89.13
64844;BME280;51310;52.198;5.422;2023-04-29T11:06:56;101829.88;;;13.87;92.82
64844;BME280;51310;52.198;5.422;2023-04-29T11:09:27;101825.88;;;13.99;97.97
64844;BME280;51310;52.198;5.422;2023-04-29T11:14:33;101839.84;;;13.31;100.00
64844;BME280;51310;52.198;5.422;2023-04-29T11:17:12;101836.25;;;13.82;100.00
64844;BME280;51310;52.198;5.422;2023-04-29T11:19:49;101832.47;;;13.87;100.00
64844;BME280;51310;52.198;5.422;2023-04-29T11:24:57;101834.53;;;13.47;98.43
64844;BME280;51310;52.198;5.422;2023-04-29T11:29:57;101846.25;;;13.35;100.00
64844;BME280;51310;52.198;5.422;2023-04-29T11:32:40;101839.59;;;13.89;93.94
64844;BME280;51310;52.198;5.422;2023-04-29T11:37:34;101837.75;;;13.97;97.59
64844;BME280;51310;52.198;5.422;2023-04-29T11:40:01;101841.56;;;13.74;95.71
64844;BME280;51310;52.198;5.422;2023-04-29T11:42:27;101842.31;;;13.73;95.47
64844;BME280;51310;52.198;5.422;2023-04-29T11:44:56;101834.13;;;14.12;97.36
64844;BME280;51310;52.198;5.422;2023-04-29T11:47:28;101842.66;;;13.77;97.95
64844;BME280;51310;52.198;5.422;2023-04-29T11:50:06;101837.41;;;13.33;99.38
64844;BME280;51310;52.198;5.422;2023-04-29T11:52:36;101838.53;;;13.87;95.34
64844;BME280;51310;52.198;5.422;2023-04-29T11:55:08;101827.38;;;14.14;97.12
64844;BME280;51310;52.198;5.422;2023-04-29T11:57:34;101839.78;;;13.82;94.64
64844;BME280;51310;52.198;5.422;2023-04-29T12:00:00;101845.50;;;13.62;97.45
64844;BME280;51310;52.198;5.422;2023-04-29T12:02:31;101849.78;;;13.62;97.76
64844;BME280;51310;52.198;5.422;2023-04-29T12:05:04;101852.72;;;13.91;94.06
64844;BME280;51310;52.198;5.422;2023-04-29T12:07:30;101848.41;;;14.26;92.38
64844;BME280;51310;52.198;5.422;2023-04-29T12:09:56;101847.16;;;14.31;93.47
64844;BME280;51310;52.198;5.422;2023-04-29T12:12:22;101843.50;;;13.33;100.00
64844;BME280;51310;52.198;5.422;2023-04-29T12:14:49;101845.41;;;13.95;99.73
64844;BME280;51310;52.198;5.422;2023-04-29T12:17:15;101845.38;;;14.22;96.58
64844;BME280;51310;52.198;5.422;2023-04-29T12:19:45;101846.56;;;14.16;96.00
64844;BME280;51310;52.198;5.422;2023-04-29T12:22:10;101851.69;;;14.77;93.00
64844;BME280;51310;52.198;5.422;2023-04-29T12:24:38;101847.13;;;14.66;92.50
64844;BME280;51310;52.198;5.422;2023-04-29T12:27:08;101841.31;;;14.77;89.63
64844;BME280;51310;52.198;5.422;2023-04-29T12:29:38;101841.00;;;14.74;89.01
64844;BME280;51310;52.198;5.422;2023-04-29T12:32:12;101842.31;;;14.97;85.83
64844;BME280;51310;52.198;5.422;2023-04-29T12:34:41;101840.00;;;15.00;87.61
64844;BME280;51310;52.198;5.422;2023-04-29T12:37:08;101841.38;;;14.96;82.65
64844;BME280;51310;52.198;5.422;2023-04-29T12:39:35;101845.50;;;14.94;84.58
64844;BME280;51310;52.198;5.422;2023-04-29T12:42:00;101844.75;;;15.23;84.51
64844;BME280;51310;52.198;5.422;2023-04-29T12:44:35;101835.66;;;15.37;82.84
64844;BME280;51310;52.198;5.422;2023-04-29T12:47:11;101848.03;;;14.75;84.26
64844;BME280;51310;52.198;5.422;2023-04-29T12:49:42;101854.41;;;14.79;83.76
64844;BME280;51310;52.198;5.422;2023-04-29T12:52:08;101849.22;;;14.79;80.87
64844;BME280;51310;52.198;5.422;2023-04-29T12:54:39;101848.66;;;14.73;83.07
64844;BME280;51310;52.198;5.422;2023-04-29T12:57:08;101850.09;;;14.97;83.37
64844;BME280;51310;52.198;5.422;2023-04-29T12:59:35;101851.13;;;14.99;84.68
64844;BME280;51310;52.198;5.422;2023-04-29T13:02:01;101858.44;;;14.49;85.45
64844;BME280;51310;52.198;5.422;2023-04-29T13:04:27;101856.41;;;14.82;87.38
64844;BME280;51310;52.198;5.422;2023-04-29T13:06:53;101849.03;;;14.95;86.96
64844;BME280;51310;52.198;5.422;2023-04-29T13:09:27;101853.84;;;15.01;86.57
64844;BME280;51310;52.198;5.422;2023-04-29T13:11:53;101850.81;;;15.32;83.63
64844;BME280;51310;52.198;5.422;2023-04-29T13:14:19;101853.50;;;15.15;83.54
64844;BME280;51310;52.198;5.422;2023-04-29T13:16:44;101859.53;;;15.24;82.91
64844;BME280;51310;52.198;5.422;2023-04-29T13:19:10;101861.63;;;14.73;84.96
64844;BME280;51310;52.198;5.422;2023-04-29T13:21:37;101866.34;;;14.51;84.07
64844;BME280;51310;52.198;5.422;2023-04-29T13:24:04;101852.13;;;14.82;81.29
64844;BME280;51310;52.198;5.422;2023-04-29T13:26:29;101860.59;;;14.90;80.58